KFAF/FAF METAR and TAF weather

Enter ICAO airport designator
Station Type Date Time Source
KFAF METAR 2019/06/17 03:56 UTC NOAA

KFAF 170356Z AUTO 21004KT 10SM CLR 26/20 A2993 RMK AO2 SLP138 T02610202 $


Station Type Date Time Source
KFAF Decoded METAR 2019/06/17 03:56 UTC NOAA

Fort Eustis / Felker, VA, United States (KFAF) 37-08N 076-37W
Jun 16, 2019 - 11:56 PM EDT / 2019.06.17 0356 UTC
Wind: from the SSW (210 degrees) at 5 MPH (4 KT):0
Visibility: 10 mile(s):0
Sky conditions: clear
Temperature: 79.0 F (26.1 C)
Dew Point: 68.4 F (20.2 C)
Relative Humidity: 69%
Pressure (altimeter): 29.93 in. Hg (1013 hPa)
ob: KFAF 170356Z AUTO 21004KT 10SM CLR 26/20 A2993 RMK AO2 SLP138 T02610202
cycle: 4

Station Type Date Time Source
KFAF TAF 2019/06/14 23:00 UTC NOAA

TAF
AMD KFAF 132350Z 1323/1424 23010G15KT 9000 -SHRA BKN055 510203 QNH2981INS
TEMPO 1324/1401 24020G30KT
BECMG 1405/1406 27012KT 9999 NSW FEW100 FEW250 WS020/28030KT 510033 QNH2994INS
BECMG 1408/1409 30012G18KT 9999 SKC 510043 QNH2998INS
BECMG 1411/1412 30015G25KT 9999 SKC 510043 QNH3005INS
BECMG 1423/1424 VRB06KT 9999 SKC QNH3013INS TX24/1323Z TN16/1410Z

Example: see airport list